createdAt,value
2022-11-08T00:01:35.725Z,100.00
2022-11-08T00:04:22.575Z,100.00
2022-11-08T00:07:30.005Z,100.00
2022-11-08T00:10:34.853Z,100.00
2022-11-08T00:13:39.873Z,100.00
2022-11-08T00:16:27.374Z,100.00
2022-11-08T00:19:13.843Z,100.00
2022-11-08T00:22:00.148Z,100.00
2022-11-08T00:24:47.067Z,100.00
2022-11-08T00:27:33.718Z,100.00
2022-11-08T00:30:19.986Z,100.00
2022-11-08T00:33:06.164Z,100.00
2022-11-08T00:35:52.536Z,100.00
2022-11-08T00:38:43.611Z,100.00
2022-11-08T00:41:29.810Z,100.00
2022-11-08T00:44:16.185Z,100.00
2022-11-08T00:47:02.652Z,100.00
2022-11-08T00:49:49.247Z,100.00
2022-11-08T00:52:35.624Z,100.00
2022-11-08T00:55:22.105Z,100.00
2022-11-08T00:58:08.628Z,100.00
2022-11-08T01:00:55.818Z,100.00
2022-11-08T01:03:42.740Z,100.00
2022-11-08T01:06:29.052Z,100.00
2022-11-08T01:09:15.287Z,100.00
2022-11-08T01:12:01.500Z,100.00
2022-11-08T01:14:47.922Z,100.00
2022-11-08T01:17:34.443Z,100.00
2022-11-08T01:20:20.676Z,100.00
2022-11-08T01:23:07.829Z,100.00
2022-11-08T01:25:54.277Z,100.00
2022-11-08T01:28:40.901Z,100.00
2022-11-08T01:31:30.034Z,100.00
2022-11-08T01:34:15.989Z,100.00
2022-11-08T01:37:02.381Z,100.00
2022-11-08T01:39:48.908Z,100.00
2022-11-08T01:42:35.339Z,100.00
2022-11-08T01:45:59.417Z,100.00
2022-11-08T01:48:57.885Z,100.00
2022-11-08T01:52:08.493Z,100.00
2022-11-08T01:54:59.012Z,100.00
2022-11-08T01:57:48.323Z,100.00
2022-11-08T02:00:37.354Z,100.00
2022-11-08T02:03:23.753Z,100.00
2022-11-08T02:06:11.526Z,100.00
2022-11-08T02:09:02.594Z,100.00
2022-11-08T02:11:50.191Z,100.00
2022-11-08T02:14:37.901Z,100.00
2022-11-08T02:17:24.259Z,100.00
2022-11-08T02:20:10.999Z,100.00
2022-11-08T02:23:05.220Z,100.00
2022-11-08T02:25:51.812Z,100.00
2022-11-08T02:28:46.449Z,100.00
2022-11-08T02:31:33.049Z,100.00
2022-11-08T02:34:42.549Z,100.00
2022-11-08T02:37:28.866Z,100.00
2022-11-08T02:40:15.137Z,100.00
2022-11-08T02:43:01.208Z,100.00
2022-11-08T02:45:48.612Z,100.00
2022-11-08T02:48:34.936Z,100.00
2022-11-08T02:51:21.059Z,100.00
2022-11-08T02:54:07.568Z,100.00
2022-11-08T02:56:53.869Z,100.00
2022-11-08T02:59:40.252Z,100.00
2022-11-08T03:02:26.563Z,100.00
2022-11-08T03:05:12.970Z,100.00
2022-11-08T03:07:59.301Z,100.00
2022-11-08T03:10:45.632Z,100.00
2022-11-08T03:13:32.168Z,100.00
2022-11-08T03:16:18.309Z,100.00
2022-11-08T03:19:04.698Z,100.00
2022-11-08T03:21:50.923Z,100.00
2022-11-08T03:24:37.283Z,100.00
2022-11-08T03:27:23.967Z,100.00
2022-11-08T03:30:10.280Z,100.00
2022-11-08T03:32:56.410Z,100.00
2022-11-08T03:35:43.301Z,100.00
2022-11-08T03:38:29.661Z,100.00
2022-11-08T03:41:16.100Z,100.00
2022-11-08T03:44:02.799Z,100.00
2022-11-08T03:46:48.973Z,100.00
2022-11-08T03:49:35.617Z,100.00
2022-11-08T03:52:21.782Z,100.00
2022-11-08T03:55:10.426Z,100.00
2022-11-08T03:57:56.937Z,100.00
2022-11-08T04:00:43.198Z,100.00
2022-11-08T04:03:29.590Z,100.00
2022-11-08T04:06:16.073Z,100.00
2022-11-08T04:09:02.557Z,100.00
2022-11-08T04:12:07.402Z,100.00
2022-11-08T04:15:12.236Z,100.00
2022-11-08T04:18:18.581Z,100.00
2022-11-08T04:21:21.512Z,100.00
2022-11-08T04:24:07.987Z,100.00
2022-11-08T04:26:54.074Z,100.00
2022-11-08T04:29:40.291Z,100.00
2022-11-08T04:32:26.689Z,100.00
2022-11-08T04:35:13.173Z,100.00
2022-11-08T04:38:01.476Z,100.00
2022-11-08T04:40:48.112Z,100.00
2022-11-08T04:43:34.837Z,100.00
2022-11-08T04:46:24.327Z,100.00
2022-11-08T04:49:10.769Z,100.00
2022-11-08T04:51:57.205Z,100.00
2022-11-08T04:54:46.348Z,100.00
2022-11-08T04:57:32.951Z,100.00
2022-11-08T05:00:19.229Z,100.00
2022-11-08T05:03:05.428Z,100.00
2022-11-08T05:05:51.738Z,100.00
2022-11-08T05:08:39.068Z,100.00
2022-11-08T05:11:28.165Z,100.00
2022-11-08T05:14:14.399Z,100.00
2022-11-08T05:17:00.923Z,100.00
2022-11-08T05:20:05.693Z,100.00
2022-11-08T05:23:10.540Z,100.00
2022-11-08T05:25:57.980Z,100.00
2022-11-08T05:28:44.664Z,100.00
2022-11-08T05:31:31.048Z,100.00
2022-11-08T05:34:17.441Z,100.00
2022-11-08T05:37:03.630Z,100.00
2022-11-08T05:39:49.957Z,100.00
2022-11-08T05:42:36.398Z,100.00
2022-11-08T05:45:22.948Z,100.00
2022-11-08T05:48:09.327Z,100.00
2022-11-08T05:50:55.878Z,100.00
2022-11-08T05:53:42.948Z,100.00
2022-11-08T05:56:29.107Z,100.00
2022-11-08T05:59:15.501Z,100.00
2022-11-08T06:02:02.157Z,100.00
2022-11-08T06:04:49.886Z,100.00
2022-11-08T06:07:36.614Z,100.00
2022-11-08T06:10:23.723Z,100.00
2022-11-08T06:13:09.748Z,100.00
2022-11-08T06:15:59.777Z,100.00
2022-11-08T06:18:47.032Z,100.00
2022-11-08T06:21:33.263Z,100.00
2022-11-08T06:24:19.378Z,100.00
2022-11-08T06:27:05.828Z,100.00
2022-11-08T06:29:52.164Z,100.00
2022-11-08T06:32:38.570Z,100.00
2022-11-08T06:35:24.781Z,100.00
2022-11-08T06:38:12.532Z,100.00
2022-11-08T06:41:00.280Z,100.00
2022-11-08T06:43:46.535Z,100.00
2022-11-08T06:46:33.164Z,100.00
2022-11-08T06:49:19.643Z,100.00
2022-11-08T06:52:06.314Z,100.00
2022-11-08T06:54:52.709Z,100.00
2022-11-08T06:57:38.937Z,100.00
2022-11-08T07:00:26.124Z,100.00
2022-11-08T07:03:13.770Z,100.00
2022-11-08T07:06:06.806Z,100.00
2022-11-08T07:08:53.251Z,100.00
2022-11-08T07:11:39.944Z,100.00
2022-11-08T07:14:26.220Z,100.00
2022-11-08T07:17:12.474Z,100.00
2022-11-08T07:19:58.940Z,100.00
2022-11-08T07:22:45.509Z,100.00
2022-11-08T07:25:32.748Z,100.00
2022-11-08T07:28:19.768Z,100.00
2022-11-08T07:31:07.448Z,100.00
2022-11-08T07:33:53.513Z,100.00
2022-11-08T07:36:40.098Z,100.00
2022-11-08T07:39:26.323Z,100.00
2022-11-08T07:42:12.799Z,100.00
2022-11-08T07:45:00.524Z,100.00
2022-11-08T07:47:47.224Z,100.00
2022-11-08T07:50:33.696Z,100.00
2022-11-08T07:53:20.881Z,100.00
2022-11-08T07:56:07.606Z,100.00
2022-11-08T07:58:53.724Z,100.00
2022-11-08T08:01:40.166Z,100.00
2022-11-08T08:04:28.795Z,100.00
2022-11-08T08:07:15.707Z,100.00
2022-11-08T08:10:02.052Z,100.00
2022-11-08T08:12:48.287Z,100.00
2022-11-08T08:15:34.736Z,100.00
2022-11-08T08:18:21.658Z,100.00
2022-11-08T08:21:08.131Z,100.00
2022-11-08T08:23:54.638Z,100.00
2022-11-08T08:26:40.722Z,100.00
2022-11-08T08:29:27.597Z,100.00
2022-11-08T08:32:13.657Z,100.00
2022-11-08T08:35:00.181Z,100.00
2022-11-08T08:37:46.874Z,100.00
2022-11-08T08:40:33.649Z,100.00
2022-11-08T08:43:20.720Z,100.00
2022-11-08T08:46:07.496Z,100.00
2022-11-08T08:48:53.706Z,100.00
2022-11-08T08:51:39.916Z,100.00
2022-11-08T08:54:29.448Z,100.00
2022-11-08T08:57:16.052Z,100.00
2022-11-08T09:03:10.666Z,100.00
2022-11-08T09:06:00.670Z,100.00
2022-11-08T09:08:47.222Z,100.00
2022-11-08T09:11:33.612Z,100.00
2022-11-08T09:14:20.064Z,100.00
2022-11-08T09:17:06.338Z,100.00
2022-11-08T09:19:56.973Z,100.00
2022-11-08T09:22:43.912Z,100.00
2022-11-08T09:25:30.962Z,100.00
2022-11-08T09:28:18.737Z,100.00
2022-11-08T09:31:07.689Z,100.00
2022-11-08T09:33:54.033Z,100.00
2022-11-08T09:36:40.788Z,100.00
2022-11-08T09:39:26.910Z,100.00
2022-11-08T09:42:22.213Z,100.00
2022-11-08T09:45:15.852Z,100.00
2022-11-08T09:48:17.000Z,100.00
2022-11-08T09:51:09.892Z,100.00
2022-11-08T09:53:59.633Z,100.00
2022-11-08T09:56:47.274Z,100.00
2022-11-08T10:00:00.308Z,100.00
2022-11-08T10:02:46.966Z,100.00
2022-11-08T10:05:41.299Z,100.00
2022-11-08T10:08:42.964Z,100.00
2022-11-08T10:11:41.156Z,100.00
2022-11-08T10:14:52.591Z,100.00
2022-11-08T10:17:55.309Z,97.98
2022-11-08T10:21:01.747Z,100.00
2022-11-08T10:24:09.329Z,95.35
2022-11-08T10:26:58.269Z,98.39
2022-11-08T10:29:45.525Z,97.44
2022-11-08T10:32:34.753Z,97.71
2022-11-08T10:35:37.358Z,95.56
2022-11-08T10:38:31.223Z,93.68
2022-11-08T10:41:30.029Z,90.79
2022-11-08T10:44:22.439Z,92.61
2022-11-08T10:47:18.801Z,91.54
2022-11-08T10:50:14.414Z,94.38
2022-11-08T10:53:02.788Z,96.04
2022-11-08T10:55:52.303Z,96.09
2022-11-08T10:58:41.286Z,96.73
2022-11-08T11:01:27.988Z,95.33
2022-11-08T11:04:27.367Z,95.62
2022-11-08T11:07:31.008Z,93.80
2022-11-08T11:10:23.779Z,91.69
2022-11-08T11:13:18.883Z,92.05
2022-11-08T11:16:05.468Z,89.68
2022-11-08T11:18:51.724Z,88.45
2022-11-08T11:21:39.801Z,88.57
2022-11-08T11:24:26.517Z,86.61
2022-11-08T11:27:24.134Z,87.61
2022-11-08T11:30:28.267Z,88.52
2022-11-08T11:33:30.294Z,88.98
2022-11-08T11:36:20.629Z,90.59
2022-11-08T11:39:16.184Z,92.29
2022-11-08T11:42:47.356Z,90.29
2022-11-08T11:45:46.936Z,91.67
2022-11-08T11:48:39.699Z,94.39
2022-11-08T11:51:29.637Z,94.61
2022-11-08T11:54:18.803Z,96.75
2022-11-08T11:57:12.220Z,97.87
2022-11-08T12:00:04.976Z,95.97
2022-11-08T12:03:07.989Z,90.64
2022-11-08T12:06:12.099Z,92.55
2022-11-08T12:09:26.030Z,95.33
2022-11-08T12:12:55.421Z,96.30
2022-11-08T12:16:15.106Z,88.20
2022-11-08T12:19:13.306Z,82.01
2022-11-08T12:22:24.109Z,81.40
2022-11-08T12:25:17.984Z,80.57
2022-11-08T12:28:18.303Z,83.13
2022-11-08T12:31:31.868Z,86.29
2022-11-08T12:34:29.846Z,93.75
2022-11-08T12:37:44.173Z,99.78
2022-11-08T12:40:43.076Z,100.00
2022-11-08T12:43:58.533Z,95.85
2022-11-08T12:47:15.414Z,90.82
2022-11-08T12:50:23.497Z,82.31
2022-11-08T12:53:25.271Z,82.67
2022-11-08T12:56:17.543Z,79.60
2022-11-08T12:59:12.092Z,80.61
2022-11-08T13:02:00.730Z,80.31
2022-11-08T13:04:56.822Z,78.88
2022-11-08T13:07:56.257Z,79.62
2022-11-08T13:11:03.336Z,88.85
2022-11-08T13:13:55.926Z,93.88
2022-11-08T13:16:45.245Z,100.00
2022-11-08T13:20:06.167Z,100.00
2022-11-08T13:23:00.853Z,100.00
2022-11-08T13:25:47.532Z,100.00
2022-11-08T13:28:40.303Z,100.00
2022-11-08T13:31:47.421Z,100.00
2022-11-08T13:34:52.715Z,100.00
2022-11-08T13:37:54.609Z,100.00
2022-11-08T13:41:12.190Z,100.00
2022-11-08T13:43:58.864Z,100.00
2022-11-08T13:46:46.406Z,100.00
2022-11-08T13:49:32.664Z,100.00
2022-11-08T13:53:00.915Z,100.00
2022-11-08T13:55:56.075Z,100.00
2022-11-08T13:58:45.351Z,100.00
2022-11-08T14:01:35.962Z,100.00
2022-11-08T14:04:34.806Z,100.00
2022-11-08T14:07:34.982Z,100.00
2022-11-08T14:10:35.393Z,100.00
2022-11-08T14:13:39.989Z,100.00
2022-11-08T14:16:32.389Z,100.00
2022-11-08T14:19:24.797Z,100.00
2022-11-08T14:22:21.829Z,100.00
2022-11-08T14:25:17.940Z,100.00
2022-11-08T14:28:04.928Z,100.00
2022-11-08T14:30:51.626Z,100.00
2022-11-08T14:33:42.415Z,100.00
2022-11-08T14:36:31.540Z,100.00
2022-11-08T14:39:19.232Z,100.00
2022-11-08T14:42:16.108Z,100.00
2022-11-08T14:45:02.236Z,100.00
2022-11-08T14:47:53.996Z,100.00
2022-11-08T14:50:40.360Z,100.00
2022-11-08T14:53:32.604Z,100.00
2022-11-08T14:56:36.608Z,100.00
2022-11-08T14:59:24.728Z,100.00
2022-11-08T15:02:11.029Z,100.00
2022-11-08T15:04:57.453Z,100.00
2022-11-08T15:07:46.602Z,100.00
2022-11-08T15:10:33.566Z,100.00
2022-11-08T15:13:20.629Z,100.00
2022-11-08T15:16:08.295Z,100.00
2022-11-08T15:18:54.922Z,100.00
2022-11-08T15:21:48.216Z,100.00
2022-11-08T15:24:38.539Z,100.00
2022-11-08T15:27:25.072Z,100.00
2022-11-08T15:30:17.121Z,100.00
2022-11-08T15:33:04.768Z,100.00
2022-11-08T15:35:51.526Z,100.00
2022-11-08T15:38:40.213Z,100.00
2022-11-08T15:41:33.889Z,100.00
2022-11-08T15:44:25.429Z,100.00
2022-11-08T15:47:34.498Z,100.00
2022-11-08T15:50:25.600Z,100.00
2022-11-08T15:53:11.966Z,100.00
2022-11-08T15:56:02.084Z,100.00
2022-11-08T15:58:48.400Z,100.00
2022-11-08T16:01:37.669Z,100.00
2022-11-08T16:04:28.906Z,100.00
2022-11-08T16:07:15.511Z,100.00
2022-11-08T16:10:01.895Z,100.00
2022-11-08T16:12:48.520Z,100.00
2022-11-08T16:15:35.612Z,100.00
2022-11-08T16:18:21.888Z,100.00
2022-11-08T16:21:13.293Z,100.00
2022-11-08T16:23:59.786Z,100.00
2022-11-08T16:26:47.476Z,100.00
2022-11-08T16:29:34.955Z,100.00
2022-11-08T16:32:21.175Z,100.00
2022-11-08T16:35:07.862Z,100.00
2022-11-08T16:37:54.170Z,100.00
2022-11-08T16:40:41.304Z,100.00
2022-11-08T16:43:27.793Z,100.00
2022-11-08T16:46:14.822Z,100.00
2022-11-08T16:49:01.166Z,100.00
2022-11-08T16:51:48.502Z,100.00
2022-11-08T16:54:34.679Z,100.00
2022-11-08T16:57:34.308Z,100.00
2022-11-08T17:00:22.041Z,100.00
2022-11-08T17:03:11.956Z,100.00
2022-11-08T17:05:58.889Z,100.00
2022-11-08T17:08:46.095Z,100.00
2022-11-08T17:11:32.357Z,100.00
2022-11-08T17:14:18.529Z,100.00
2022-11-08T17:17:05.360Z,100.00
2022-11-08T17:19:51.965Z,100.00
2022-11-08T17:22:39.218Z,100.00
2022-11-08T17:25:25.816Z,100.00
2022-11-08T17:28:12.644Z,100.00
2022-11-08T17:31:18.976Z,100.00
2022-11-08T17:34:05.102Z,100.00
2022-11-08T17:36:52.885Z,100.00
2022-11-08T17:39:39.143Z,100.00
2022-11-08T17:42:25.823Z,100.00
2022-11-08T17:45:12.949Z,100.00
2022-11-08T17:47:59.197Z,100.00
2022-11-08T17:50:48.668Z,100.00
2022-11-08T17:53:35.707Z,100.00
2022-11-08T17:56:22.046Z,100.00
2022-11-08T17:59:08.364Z,100.00
2022-11-08T18:01:55.110Z,100.00
2022-11-08T18:04:41.889Z,100.00
2022-11-08T18:07:28.110Z,100.00
2022-11-08T18:10:16.428Z,100.00
2022-11-08T18:13:02.957Z,100.00
2022-11-08T18:15:49.812Z,100.00
2022-11-08T18:18:36.902Z,100.00
2022-11-08T18:21:23.533Z,100.00
2022-11-08T18:24:10.588Z,100.00
2022-11-08T18:26:56.962Z,100.00
2022-11-08T18:29:43.222Z,100.00
2022-11-08T18:32:30.713Z,100.00
2022-11-08T18:35:17.061Z,100.00
2022-11-08T18:38:03.688Z,100.00
2022-11-08T18:40:49.907Z,100.00
2022-11-08T18:43:38.185Z,100.00
2022-11-08T18:46:26.163Z,100.00
2022-11-08T18:49:12.626Z,100.00
2022-11-08T18:51:59.201Z,100.00
2022-11-08T18:54:47.312Z,100.00
2022-11-08T18:57:33.899Z,100.00
2022-11-08T19:00:20.761Z,100.00
2022-11-08T19:03:07.108Z,100.00
2022-11-08T19:05:54.001Z,100.00
2022-11-08T19:08:40.235Z,100.00
2022-11-08T19:11:28.489Z,100.00
2022-11-08T19:14:14.683Z,100.00
2022-11-08T19:17:01.238Z,100.00
2022-11-08T19:19:47.586Z,100.00
2022-11-08T19:22:33.947Z,100.00
2022-11-08T19:25:20.060Z,100.00
2022-11-08T19:28:06.619Z,100.00
2022-11-08T19:30:53.953Z,100.00
2022-11-08T19:33:40.649Z,100.00
2022-11-08T19:36:28.810Z,100.00
2022-11-08T19:39:14.998Z,100.00
2022-11-08T19:42:01.467Z,100.00
2022-11-08T19:44:47.608Z,100.00
2022-11-08T19:47:33.993Z,100.00
2022-11-08T19:50:20.287Z,100.00
2022-11-08T19:53:07.708Z,100.00
2022-11-08T19:56:01.247Z,100.00
2022-11-08T19:58:47.717Z,100.00
2022-11-08T20:01:39.767Z,100.00
2022-11-08T20:04:26.459Z,100.00
2022-11-08T20:07:12.783Z,100.00
2022-11-08T20:09:59.514Z,100.00
2022-11-08T20:12:45.708Z,100.00
2022-11-08T20:15:32.057Z,100.00
2022-11-08T20:18:18.879Z,100.00
2022-11-08T20:21:07.404Z,100.00
2022-11-08T20:23:53.594Z,100.00
2022-11-08T20:26:41.245Z,100.00
2022-11-08T20:29:27.792Z,100.00
2022-11-08T20:32:14.155Z,100.00
2022-11-08T20:35:00.861Z,100.00
2022-11-08T20:37:47.132Z,100.00
2022-11-08T20:40:33.441Z,100.00
2022-11-08T20:43:21.756Z,100.00
2022-11-08T20:46:13.872Z,100.00
2022-11-08T20:49:01.439Z,100.00
2022-11-08T20:51:48.057Z,100.00
2022-11-08T20:54:34.203Z,100.00
2022-11-08T20:57:20.732Z,100.00
2022-11-08T21:00:15.939Z,100.00
2022-11-08T21:03:04.083Z,100.00
2022-11-08T21:06:14.253Z,100.00
2022-11-08T21:09:05.873Z,100.00
2022-11-08T21:12:03.347Z,100.00
2022-11-08T21:14:49.524Z,100.00
2022-11-08T21:17:36.077Z,100.00
2022-11-08T21:20:22.430Z,100.00
2022-11-08T21:23:08.977Z,100.00
2022-11-08T21:25:55.201Z,100.00
2022-11-08T21:28:42.040Z,100.00
2022-11-08T21:31:29.026Z,100.00
2022-11-08T21:34:15.298Z,100.00
2022-11-08T21:37:01.756Z,100.00
2022-11-08T21:39:48.026Z,100.00
2022-11-08T21:42:39.081Z,100.00
2022-11-08T21:45:26.473Z,100.00
2022-11-08T21:48:15.410Z,100.00
2022-11-08T21:51:05.201Z,100.00
2022-11-08T21:53:55.092Z,100.00
2022-11-08T21:56:41.674Z,100.00
2022-11-08T21:59:27.828Z,100.00
2022-11-08T22:02:15.693Z,100.00
2022-11-08T22:05:02.022Z,100.00
2022-11-08T22:07:48.073Z,100.00
2022-11-08T22:10:36.945Z,100.00
2022-11-08T22:13:23.670Z,100.00
2022-11-08T22:16:09.840Z,100.00
2022-11-08T22:19:05.544Z,100.00
2022-11-08T22:21:52.240Z,100.00
2022-11-08T22:24:39.400Z,100.00
2022-11-08T22:27:25.788Z,100.00
2022-11-08T22:30:16.541Z,100.00
2022-11-08T22:33:03.293Z,100.00
2022-11-08T22:35:49.657Z,100.00
2022-11-08T22:38:36.147Z,100.00
2022-11-08T22:41:23.235Z,100.00
2022-11-08T22:44:12.371Z,100.00
2022-11-08T22:46:58.827Z,100.00
2022-11-08T22:49:45.330Z,100.00
2022-11-08T22:52:31.880Z,100.00
2022-11-08T22:55:18.192Z,100.00
2022-11-08T22:58:04.589Z,100.00
2022-11-08T23:00:51.015Z,100.00
2022-11-08T23:03:37.253Z,100.00
2022-11-08T23:06:23.557Z,100.00
2022-11-08T23:09:10.008Z,100.00
2022-11-08T23:12:14.951Z,100.00
2022-11-08T23:15:19.836Z,100.00
2022-11-08T23:18:05.990Z,100.00
2022-11-08T23:21:13.389Z,100.00
2022-11-08T23:24:18.402Z,100.00
2022-11-08T23:27:25.340Z,100.00
2022-11-08T23:30:35.039Z,100.00
2022-11-08T23:33:21.805Z,100.00
2022-11-08T23:36:11.448Z,100.00
2022-11-08T23:38:58.122Z,100.00
2022-11-08T23:42:03.061Z,100.00
2022-11-08T23:44:49.246Z,100.00
2022-11-08T23:47:35.464Z,100.00
2022-11-08T23:50:21.800Z,100.00
2022-11-08T23:53:08.077Z,100.00
2022-11-08T23:55:54.765Z,100.00
2022-11-08T23:58:40.922Z,100.00
